createdAt,value
2019-03-17T00:01:00.210Z,1.41
2019-03-17T00:06:08.460Z,1.06
2019-03-17T00:11:16.678Z,1.26
2019-03-17T00:16:36.968Z,1.43
2019-03-17T00:21:38.335Z,1.17
2019-03-17T00:31:42.417Z,1.49
2019-03-17T00:36:31.938Z,1.53
2019-03-17T00:41:52.538Z,1.45
2019-03-17T00:46:39.937Z,1.47
2019-03-17T00:51:48.231Z,1.38
2019-03-17T00:56:55.676Z,1.04
2019-03-17T01:02:16.770Z,1.37
2019-03-17T01:07:16.990Z,1.53
2019-03-17T01:12:18.121Z,1.40
2019-03-17T01:17:18.458Z,1.37
2019-03-17T01:22:05.539Z,1.27
2019-03-17T01:27:26.894Z,1.22
2019-03-17T01:32:14.973Z,0.98
2019-03-17T01:37:37.100Z,1.02
2019-03-17T01:42:25.222Z,1.30
2019-03-17T01:47:33.577Z,1.13
2019-03-17T01:52:53.553Z,1.10
2019-03-17T01:57:54.805Z,1.54
2019-03-17T02:02:55.743Z,1.27
2019-03-17T02:07:56.965Z,1.06
2019-03-17T02:12:57.815Z,0.77
2019-03-17T02:17:46.177Z,0.86
2019-03-17T02:22:54.404Z,0.80
2019-03-17T02:28:02.619Z,0.85
2019-03-17T02:33:11.027Z,1.04
2019-03-17T02:38:18.924Z,1.22
2019-03-17T02:43:39.046Z,1.11
2019-03-17T02:48:40.048Z,1.37
2019-03-17T02:53:28.259Z,1.68
2019-03-17T02:58:35.781Z,1.53
2019-03-17T03:03:43.022Z,1.41
2019-03-17T03:09:03.095Z,1.63
2019-03-17T03:19:07.641Z,1.47
2019-03-17T03:24:08.601Z,1.54
2019-03-17T03:29:09.690Z,1.55
2019-03-17T03:33:57.760Z,1.52
2019-03-17T03:39:06.109Z,1.34
2019-03-17T03:44:13.389Z,0.71
2019-03-17T03:49:20.648Z,0.69
2019-03-17T03:54:41.611Z,0.58
2019-03-17T03:59:29.952Z,0.75
2019-03-17T04:04:50.762Z,0.66
2019-03-17T04:09:52.094Z,0.75
2019-03-17T04:14:39.165Z,0.82
2019-03-17T04:19:49.483Z,0.96
2019-03-17T04:24:56.713Z,1.26
2019-03-17T04:30:04.168Z,1.25
2019-03-17T04:35:11.314Z,1.70
2019-03-17T04:40:19.707Z,1.63
2019-03-17T04:45:26.871Z,1.42
2019-03-17T04:50:48.317Z,1.29
2019-03-17T04:55:35.418Z,1.21
2019-03-17T05:00:56.611Z,1.47
2019-03-17T05:05:43.885Z,1.18
2019-03-17T05:11:04.111Z,1.15
2019-03-17T05:15:52.523Z,1.20
2019-03-17T05:20:59.810Z,1.22
2019-03-17T05:26:08.058Z,0.98
2019-03-17T05:31:15.653Z,1.02
2019-03-17T05:36:24.240Z,1.21
2019-03-17T05:41:44.553Z,1.11
2019-03-17T05:46:44.692Z,1.68
2019-03-17T05:51:44.737Z,1.51
2019-03-17T05:56:45.719Z,1.24
2019-03-17T06:01:47.091Z,1.07
2019-03-17T06:06:35.335Z,1.51
2019-03-17T06:11:56.273Z,1.28
2019-03-17T06:16:56.423Z,1.33
2019-03-17T06:22:00.338Z,1.26
2019-03-17T06:26:57.715Z,1.13
2019-03-17T06:36:46.610Z,1.28
2019-03-17T06:41:54.993Z,1.39
2019-03-17T06:47:14.992Z,1.27
2019-03-17T06:52:03.423Z,1.27
2019-03-17T06:57:23.521Z,1.39
2019-03-17T07:02:23.914Z,1.43
2019-03-17T07:07:24.024Z,1.66
2019-03-17T07:12:11.307Z,1.12
2019-03-17T07:22:26.460Z,1.06
2019-03-17T07:27:36.503Z,1.02
2019-03-17T07:32:24.778Z,0.92
2019-03-17T07:37:56.226Z,1.33
2019-03-17T07:42:33.120Z,1.02
2019-03-17T07:47:53.250Z,0.75
2019-03-17T07:52:53.679Z,0.83
2019-03-17T07:57:53.816Z,0.97
2019-03-17T08:02:40.985Z,1.84
2019-03-17T08:07:49.245Z,1.00
2019-03-17T08:13:09.389Z,0.85
2019-03-17T08:18:10.720Z,1.38
2019-03-17T08:22:59.178Z,1.00
2019-03-17T08:28:19.418Z,1.25
2019-03-17T08:33:06.654Z,1.23
2019-03-17T08:38:21.876Z,1.20
2019-03-17T08:48:25.746Z,0.83
2019-03-17T08:53:46.940Z,1.16
2019-03-17T08:58:35.163Z,1.18
2019-03-17T09:03:42.466Z,1.04
2019-03-17T09:09:02.569Z,1.12
2019-03-17T09:14:02.914Z,0.69
2019-03-17T09:19:02.897Z,1.05
2019-03-17T09:24:16.307Z,1.09
2019-03-17T09:29:04.392Z,1.07
2019-03-17T09:33:52.672Z,1.20
2019-03-17T09:38:59.924Z,0.97
2019-03-17T09:44:20.126Z,1.12
2019-03-17T09:49:20.134Z,0.72
2019-03-17T09:54:21.462Z,0.88
2019-03-17T09:59:09.500Z,0.88
2019-03-17T10:09:34.254Z,0.98
2019-03-17T10:14:22.621Z,0.94
2019-03-17T10:19:29.891Z,1.28
2019-03-17T10:24:37.528Z,1.36
2019-03-17T10:34:49.736Z,0.94
2019-03-17T10:50:17.330Z,1.06
2019-03-17T10:55:18.520Z,0.96
2019-03-17T11:00:05.710Z,1.00
2019-03-17T11:05:26.575Z,1.07
2019-03-17T11:10:14.891Z,0.85
2019-03-17T11:15:22.297Z,0.88
2019-03-17T11:20:29.418Z,1.05
2019-03-17T11:25:50.741Z,0.92
2019-03-17T11:30:50.886Z,1.67
2019-03-17T11:35:51.067Z,0.85
2019-03-17T11:40:39.278Z,1.15
2019-03-17T11:45:59.582Z,0.83
2019-03-17T11:50:46.759Z,0.92
2019-03-17T11:56:08.003Z,1.44
2019-03-17T12:01:08.133Z,0.87
2019-03-17T12:06:08.333Z,1.06
2019-03-17T12:11:08.338Z,1.00
2019-03-17T12:16:09.604Z,0.99
2019-03-17T12:21:10.788Z,0.91
2019-03-17T12:26:11.132Z,1.62
2019-03-17T12:31:11.054Z,1.07
2019-03-17T12:35:59.584Z,0.84
2019-03-17T12:41:07.655Z,1.04
2019-03-17T12:46:27.917Z,1.33
2019-03-17T12:51:28.041Z,0.86
2019-03-17T12:56:15.329Z,1.15
2019-03-17T13:01:36.427Z,1.17
2019-03-17T13:06:26.175Z,1.13
2019-03-17T13:11:24.394Z,0.90
2019-03-17T13:16:44.562Z,1.32
2019-03-17T13:21:45.529Z,1.15
2019-03-17T13:26:46.890Z,0.98
2019-03-17T13:31:47.022Z,1.17
2019-03-17T13:36:34.375Z,2.25
2019-03-17T13:41:54.407Z,1.54
2019-03-17T13:52:00.686Z,1.18
2019-03-17T13:56:48.916Z,1.21
2019-03-17T14:07:13.740Z,0.71
2019-03-17T14:17:17.834Z,0.63
2019-03-17T14:22:19.284Z,0.59
2019-03-17T14:27:07.947Z,0.76
2019-03-17T14:47:37.260Z,0.83
2019-03-17T14:52:37.295Z,1.01
2019-03-17T14:57:38.389Z,0.77
2019-03-17T15:02:26.821Z,0.88
2019-03-17T15:07:35.478Z,0.69
2019-03-17T15:12:55.602Z,0.75
2019-03-17T15:17:43.505Z,0.94
2019-03-17T15:22:50.597Z,0.86
2019-03-17T15:27:58.755Z,0.61
2019-03-17T15:33:19.876Z,0.66
2019-03-17T15:38:20.316Z,0.89
2019-03-17T15:43:08.690Z,0.63
2019-03-17T15:48:30.174Z,0.62
2019-03-17T15:53:30.320Z,0.70
2019-03-17T16:00:25.017Z,1.18
2019-03-17T16:13:46.430Z,0.81
2019-03-17T16:18:35.906Z,0.68
2019-03-17T16:23:53.949Z,0.91
2019-03-17T16:28:54.932Z,0.63
2019-03-17T16:33:55.990Z,0.90
2019-03-17T16:38:44.192Z,0.71
2019-03-17T16:44:04.311Z,1.56
2019-03-17T16:49:05.465Z,0.82
2019-03-17T16:53:52.795Z,0.91
2019-03-17T16:59:12.951Z,0.81
2019-03-17T17:04:13.595Z,0.89
2019-03-17T17:09:13.763Z,0.84
2019-03-17T17:19:04.975Z,1.09
2019-03-17T17:29:28.796Z,1.02
2019-03-17T17:34:30.083Z,1.21
2019-03-17T17:39:30.056Z,1.26
2019-03-17T17:44:31.320Z,1.19
2019-03-17T17:49:32.406Z,1.26
2019-03-17T17:54:32.618Z,1.07
2019-03-17T17:59:33.575Z,1.38
2019-03-17T18:04:21.905Z,1.21
2019-03-17T18:09:30.163Z,1.16
2019-03-17T18:14:51.293Z,2.14
2019-03-17T18:19:39.479Z,1.15
2019-03-17T18:24:47.734Z,1.73
2019-03-17T18:30:08.767Z,1.55
2019-03-17T18:34:56.988Z,1.52
2019-03-17T18:40:05.166Z,1.72
2019-03-17T18:45:12.461Z,2.26
2019-03-17T18:50:21.180Z,1.89
2019-03-17T18:55:27.990Z,1.88
2019-03-17T19:00:48.174Z,1.94
2019-03-17T19:10:40.760Z,2.52
2019-03-17T19:15:48.186Z,2.40
2019-03-17T19:20:56.293Z,2.55
2019-03-17T19:26:04.800Z,2.89
2019-03-17T19:31:24.993Z,2.75
2019-03-17T19:36:12.445Z,3.08
2019-03-17T19:41:33.480Z,2.57
2019-03-17T19:46:34.567Z,2.61
2019-03-17T19:51:23.090Z,2.93
2019-03-17T19:56:30.412Z,2.95
2019-03-17T20:01:38.636Z,2.95
2019-03-17T20:06:45.956Z,2.90
2019-03-17T20:12:07.041Z,3.77
2019-03-17T20:17:07.344Z,3.91
2019-03-17T20:22:07.331Z,3.80
2019-03-17T20:26:55.576Z,3.16
2019-03-17T20:32:03.829Z,3.06
2019-03-17T20:37:24.169Z,2.96
2019-03-17T20:42:12.232Z,3.76
2019-03-17T20:47:32.501Z,2.64
2019-03-17T20:52:19.610Z,3.32
2019-03-17T20:57:27.938Z,3.69
2019-03-17T21:07:39.592Z,3.07
2019-03-17T21:12:47.827Z,3.21
2019-03-17T21:17:55.052Z,2.69
2019-03-17T21:23:20.023Z,3.30
2019-03-17T21:28:20.207Z,3.58
2019-03-17T21:33:07.537Z,2.53
2019-03-17T21:38:14.989Z,2.27
2019-03-17T21:43:22.213Z,2.33
2019-03-17T21:48:29.750Z,2.38
2019-03-17T21:53:49.713Z,2.52
2019-03-17T21:58:38.165Z,2.83
2019-03-17T22:03:59.259Z,1.93
2019-03-17T22:08:46.732Z,2.67
2019-03-17T22:14:12.122Z,2.22
2019-03-17T22:18:54.216Z,2.89
2019-03-17T22:24:28.639Z,2.06
2019-03-17T22:29:05.827Z,2.24
2019-03-17T22:34:26.953Z,2.14
2019-03-17T22:39:14.139Z,3.00
2019-03-17T22:44:24.703Z,2.51
2019-03-17T22:49:29.669Z,2.29
2019-03-17T22:54:50.770Z,2.76
2019-03-17T22:59:51.079Z,2.74
2019-03-17T23:04:52.210Z,3.11
2019-03-17T23:09:52.614Z,2.83
2019-03-17T23:14:39.926Z,3.06
2019-03-17T23:20:00.472Z,2.23
2019-03-17T23:24:47.480Z,3.17
2019-03-17T23:29:54.855Z,2.97
2019-03-17T23:35:14.830Z,2.61
2019-03-17T23:40:03.249Z,3.28
2019-03-17T23:45:10.359Z,2.81
2019-03-17T23:50:18.636Z,2.55
2019-03-17T23:55:26.303Z,3.55
